createdAt,value
2018-05-02T00:01:51.398Z,91.30
2018-05-02T00:04:19.011Z,91.40
2018-05-02T00:06:46.597Z,91.40
2018-05-02T00:09:14.136Z,91.60
2018-05-02T00:11:41.695Z,91.90
2018-05-02T00:14:09.239Z,91.90
2018-05-02T00:16:36.804Z,92.00
2018-05-02T00:19:04.443Z,91.90
2018-05-02T00:21:32.023Z,91.70
2018-05-02T00:23:59.574Z,91.50
2018-05-02T00:26:27.156Z,91.50
2018-05-02T00:28:54.693Z,91.50
2018-05-02T00:31:22.246Z,91.50
2018-05-02T00:33:49.799Z,91.60
2018-05-02T00:36:18.119Z,92.60
2018-05-02T00:38:45.696Z,92.50
2018-05-02T00:41:13.247Z,92.80
2018-05-02T00:43:40.780Z,95.70
2018-05-02T00:46:08.360Z,94.10
2018-05-02T00:48:42.355Z,92.00
2018-05-02T00:51:09.909Z,91.90
2018-05-02T00:53:37.455Z,91.70
2018-05-02T00:56:05.079Z,91.50
2018-05-02T00:58:32.604Z,91.50
2018-05-02T01:01:00.203Z,91.70
2018-05-02T01:03:27.786Z,91.80
2018-05-02T01:05:55.346Z,91.80
2018-05-02T01:08:22.915Z,91.70
2018-05-02T01:10:50.503Z,91.50
2018-05-02T01:13:18.070Z,91.50
2018-05-02T01:15:45.615Z,91.40
2018-05-02T01:18:13.244Z,91.30
2018-05-02T01:20:40.820Z,91.10
2018-05-02T01:23:08.386Z,91.10
2018-05-02T01:25:36.707Z,91.30
2018-05-02T01:28:04.279Z,91.30
2018-05-02T01:30:31.954Z,91.40
2018-05-02T01:33:00.275Z,91.40
2018-05-02T01:35:27.844Z,91.40
2018-05-02T01:37:55.387Z,91.60
2018-05-02T01:40:22.917Z,91.10
2018-05-02T01:42:50.472Z,91.00
2018-05-02T01:45:18.024Z,90.80
2018-05-02T01:47:45.579Z,90.80
2018-05-02T01:50:13.162Z,91.00
2018-05-02T01:52:40.695Z,90.80
2018-05-02T01:55:09.001Z,90.60
2018-05-02T01:57:37.325Z,90.90
2018-05-02T02:00:04.861Z,90.90
2018-05-02T02:02:32.441Z,91.00
2018-05-02T02:04:59.997Z,91.00
2018-05-02T02:07:27.567Z,90.90
2018-05-02T02:09:55.126Z,91.00
2018-05-02T02:12:22.738Z,91.00
2018-05-02T02:14:50.278Z,91.00
2018-05-02T02:17:17.845Z,91.00
2018-05-02T02:19:45.418Z,90.80
2018-05-02T02:22:12.973Z,90.90
2018-05-02T02:24:40.588Z,91.00
2018-05-02T02:27:08.935Z,90.90
2018-05-02T02:29:36.501Z,90.90
2018-05-02T02:32:04.079Z,91.00
2018-05-02T02:34:31.656Z,91.00
2018-05-02T02:37:00.018Z,90.90
2018-05-02T02:39:27.555Z,90.90
2018-05-02T02:41:55.147Z,90.90
2018-05-02T02:44:22.710Z,91.00
2018-05-02T02:46:51.011Z,91.20
2018-05-02T02:49:18.576Z,91.10
2018-05-02T02:51:46.946Z,91.30
2018-05-02T02:54:14.481Z,91.30
2018-05-02T02:56:42.795Z,91.30
2018-05-02T02:59:10.356Z,91.30
2018-05-02T03:01:37.899Z,91.40
2018-05-02T03:04:05.439Z,91.50
2018-05-02T03:06:33.002Z,91.50
2018-05-02T03:09:01.358Z,91.00
2018-05-02T03:11:28.951Z,90.90
2018-05-02T03:13:56.535Z,91.00
2018-05-02T03:16:24.078Z,91.10
2018-05-02T03:18:51.620Z,91.20
2018-05-02T03:21:19.260Z,91.10
2018-05-02T03:23:47.587Z,91.10
2018-05-02T03:26:15.147Z,91.10
2018-05-02T03:28:42.700Z,91.10
2018-05-02T03:31:10.234Z,91.20
2018-05-02T03:33:37.870Z,91.20
2018-05-02T03:36:06.193Z,91.20
2018-05-02T03:38:33.732Z,91.20
2018-05-02T03:41:01.295Z,91.20
2018-05-02T03:43:28.836Z,91.20
2018-05-02T03:45:56.403Z,91.20
2018-05-02T03:48:23.976Z,91.30
2018-05-02T03:50:51.560Z,91.30
2018-05-02T03:53:19.122Z,91.20
2018-05-02T03:55:46.665Z,91.30
2018-05-02T03:58:14.245Z,91.40
2018-05-02T04:00:53.623Z,91.50
2018-05-02T04:03:33.696Z,91.60
2018-05-02T04:06:27.599Z,91.50
2018-05-02T04:08:55.150Z,91.60
2018-05-02T04:11:22.690Z,91.60
2018-05-02T04:13:50.271Z,91.70
2018-05-02T04:16:17.806Z,91.90
2018-05-02T04:18:45.441Z,91.80
2018-05-02T04:21:12.959Z,91.90
2018-05-02T04:23:40.490Z,91.90
2018-05-02T04:26:08.090Z,91.90
2018-05-02T04:28:35.677Z,91.90
2018-05-02T04:31:04.057Z,92.00
2018-05-02T04:33:31.641Z,92.00
2018-05-02T04:35:59.219Z,92.00
2018-05-02T04:38:26.804Z,92.20
2018-05-02T04:40:54.411Z,92.10
2018-05-02T04:43:21.958Z,92.50
2018-05-02T04:45:50.286Z,92.10
2018-05-02T04:48:17.842Z,92.10
2018-05-02T04:50:45.390Z,92.10
2018-05-02T04:53:12.951Z,92.00
2018-05-02T04:55:40.509Z,91.90
2018-05-02T04:58:08.068Z,91.90
2018-05-02T05:00:35.648Z,92.00
2018-05-02T05:03:03.203Z,92.00
2018-05-02T05:05:30.810Z,92.00
2018-05-02T05:07:59.123Z,92.20
2018-05-02T05:10:26.680Z,92.20
2018-05-02T05:12:54.267Z,92.30
2018-05-02T05:15:21.879Z,92.40
2018-05-02T05:17:49.559Z,92.20
2018-05-02T05:20:17.115Z,92.10
2018-05-02T05:22:44.690Z,92.00
2018-05-02T05:25:12.395Z,91.80
2018-05-02T05:27:39.992Z,91.90
2018-05-02T05:30:07.592Z,91.90
2018-05-02T05:32:35.135Z,92.10
2018-05-02T05:35:02.711Z,92.30
2018-05-02T05:37:39.942Z,92.20
2018-05-02T05:40:07.496Z,92.20
2018-05-02T05:42:35.058Z,91.90
2018-05-02T05:45:02.623Z,91.80
2018-05-02T05:47:40.822Z,91.60
2018-05-02T05:50:08.418Z,91.70
2018-05-02T05:52:35.998Z,91.50
2018-05-02T05:55:03.563Z,91.40
2018-05-02T05:57:31.142Z,91.50
2018-05-02T05:59:58.675Z,91.40
2018-05-02T06:02:26.232Z,91.30
2018-05-02T06:04:53.907Z,91.30
2018-05-02T06:07:21.475Z,91.20
2018-05-02T06:09:49.050Z,91.10
2018-05-02T06:12:16.640Z,91.20
2018-05-02T06:14:44.229Z,91.30
2018-05-02T06:17:11.915Z,90.90
2018-05-02T06:19:39.530Z,91.00
2018-05-02T06:22:07.125Z,91.00
2018-05-02T06:24:34.719Z,91.10
2018-05-02T06:27:02.288Z,91.10
2018-05-02T06:29:29.834Z,91.10
2018-05-02T06:31:57.487Z,91.10
2018-05-02T06:34:24.993Z,90.60
2018-05-02T06:37:07.110Z,90.70
2018-05-02T06:39:34.696Z,90.70
2018-05-02T06:42:03.048Z,91.80
2018-05-02T06:44:30.622Z,91.80
2018-05-02T06:46:58.200Z,91.50
2018-05-02T06:49:26.513Z,92.10
2018-05-02T06:51:54.114Z,92.20
2018-05-02T06:54:21.722Z,92.00
2018-05-02T06:56:49.452Z,92.20
2018-05-02T06:59:17.019Z,92.30
2018-05-02T07:01:44.609Z,92.10
2018-05-02T07:04:12.169Z,92.10
2018-05-02T07:06:39.802Z,92.50
2018-05-02T07:09:07.351Z,93.20
2018-05-02T07:11:34.939Z,93.50
2018-05-02T07:14:03.304Z,96.60
2018-05-02T07:16:30.866Z,98.20
2018-05-02T07:18:58.452Z,94.00
2018-05-02T07:21:26.012Z,94.10
2018-05-02T07:23:53.564Z,93.60
2018-05-02T07:26:21.138Z,93.40
2018-05-02T07:28:48.692Z,93.60
2018-05-02T07:31:16.242Z,93.80
2018-05-02T07:33:43.824Z,93.60
2018-05-02T07:36:11.384Z,93.50
2018-05-02T07:38:38.968Z,93.20
2018-05-02T07:41:06.603Z,92.30
2018-05-02T07:43:34.209Z,92.80
2018-05-02T07:46:01.826Z,94.10
2018-05-02T07:48:29.443Z,94.20
2018-05-02T07:50:57.039Z,94.80
2018-05-02T07:53:24.590Z,97.60
2018-05-02T07:55:52.168Z,98.80
2018-05-02T07:58:19.775Z,97.90
2018-05-02T08:00:47.391Z,97.70
2018-05-02T08:03:14.988Z,97.10
2018-05-02T08:05:43.332Z,96.70
2018-05-02T08:08:11.063Z,96.50
2018-05-02T08:10:38.692Z,96.20
2018-05-02T08:13:06.273Z,96.30
2018-05-02T08:15:34.057Z,96.50
2018-05-02T08:18:02.135Z,96.40
2018-05-02T08:20:30.063Z,96.30
2018-05-02T08:22:57.930Z,96.20
2018-05-02T08:25:25.669Z,96.10
2018-05-02T08:28:07.586Z,96.00
2018-05-02T08:30:35.163Z,95.70
2018-05-02T08:33:02.775Z,95.70
2018-05-02T08:35:30.407Z,95.90
2018-05-02T08:37:57.971Z,95.70
2018-05-02T08:40:25.530Z,95.90
2018-05-02T08:42:53.103Z,95.40
2018-05-02T08:45:20.710Z,95.50
2018-05-02T08:47:48.304Z,95.60
2018-05-02T08:50:15.929Z,95.60
2018-05-02T08:52:43.482Z,95.70
2018-05-02T08:55:11.050Z,96.00
2018-05-02T08:57:38.636Z,95.50
2018-05-02T09:00:06.223Z,95.40
2018-05-02T09:02:33.794Z,95.40
2018-05-02T09:05:02.155Z,95.50
2018-05-02T09:07:29.716Z,95.60
2018-05-02T09:09:57.262Z,95.40
2018-05-02T09:12:24.858Z,95.60
2018-05-02T09:14:52.418Z,95.80
2018-05-02T09:17:19.981Z,96.00
2018-05-02T09:19:47.579Z,95.50
2018-05-02T09:22:15.148Z,95.50
2018-05-02T09:24:42.734Z,95.70
2018-05-02T09:27:10.348Z,95.90
2018-05-02T09:29:37.929Z,96.00
2018-05-02T09:32:05.503Z,96.30
2018-05-02T09:34:33.100Z,96.10
2018-05-02T09:37:05.580Z,96.00
2018-05-02T09:39:33.182Z,95.90
2018-05-02T09:42:00.722Z,95.80
2018-05-02T09:44:28.271Z,95.70
2018-05-02T09:46:56.047Z,95.70
2018-05-02T09:49:23.610Z,95.50
2018-05-02T09:51:51.196Z,95.20
2018-05-02T09:54:18.774Z,94.90
2018-05-02T09:56:52.367Z,95.90
2018-05-02T09:59:19.922Z,95.60
2018-05-02T10:01:47.511Z,95.20
2018-05-02T10:04:15.115Z,95.70
2018-05-02T10:06:42.801Z,95.50
2018-05-02T10:09:10.392Z,95.40
2018-05-02T10:11:37.965Z,94.60
2018-05-02T10:14:05.582Z,94.10
2018-05-02T10:16:33.176Z,94.00
2018-05-02T10:19:00.745Z,93.20
2018-05-02T10:21:28.326Z,93.10
2018-05-02T10:23:55.898Z,93.40
2018-05-02T10:26:23.515Z,92.80
2018-05-02T10:28:51.082Z,91.10
2018-05-02T10:31:18.658Z,90.30
2018-05-02T10:33:46.251Z,89.60
2018-05-02T10:36:13.886Z,89.60
2018-05-02T10:38:41.434Z,75.60
2018-05-02T10:41:09.055Z,74.50
2018-05-02T10:43:36.664Z,74.30
2018-05-02T10:46:04.257Z,73.70
2018-05-02T10:48:32.615Z,73.30
2018-05-02T10:51:00.165Z,73.10
2018-05-02T10:53:27.716Z,73.40
2018-05-02T10:55:55.395Z,73.80
2018-05-02T10:58:22.886Z,72.70
2018-05-02T11:00:51.266Z,73.40
2018-05-02T11:03:18.872Z,73.30
2018-05-02T11:05:46.503Z,72.50
2018-05-02T11:08:14.116Z,72.50
2018-05-02T11:10:41.710Z,72.30
2018-05-02T11:13:09.323Z,73.30
2018-05-02T11:15:36.910Z,72.80
2018-05-02T11:18:04.475Z,73.10
2018-05-02T11:20:32.030Z,74.10
2018-05-02T11:23:00.412Z,72.10
2018-05-02T11:25:27.988Z,72.10
2018-05-02T11:27:55.691Z,73.70
2018-05-02T11:30:23.367Z,72.40
2018-05-02T11:32:50.951Z,71.50
2018-05-02T11:35:18.555Z,71.60
2018-05-02T11:38:00.671Z,70.90
2018-05-02T11:40:28.254Z,71.90
2018-05-02T11:42:55.872Z,71.20
2018-05-02T11:45:23.418Z,71.40
2018-05-02T11:47:56.128Z,71.30
2018-05-02T11:50:23.691Z,72.80
2018-05-02T11:52:51.282Z,72.40
2018-05-02T11:55:18.868Z,73.10
2018-05-02T11:57:46.449Z,73.60
2018-05-02T12:00:14.197Z,73.90
2018-05-02T12:02:41.814Z,72.50
2018-05-02T12:05:09.327Z,74.40
2018-05-02T12:07:36.918Z,75.10
2018-05-02T12:10:04.519Z,75.00
2018-05-02T12:12:32.139Z,73.70
2018-05-02T12:14:59.730Z,74.30
2018-05-02T12:17:28.106Z,73.40
2018-05-02T12:19:55.699Z,73.40
2018-05-02T12:22:23.263Z,73.10
2018-05-02T12:24:50.839Z,73.80
2018-05-02T12:27:18.426Z,73.40
2018-05-02T12:29:45.972Z,72.70
2018-05-02T12:32:13.682Z,73.10
2018-05-02T12:34:41.248Z,72.60
2018-05-02T12:37:08.794Z,73.00
2018-05-02T12:39:36.404Z,74.20
2018-05-02T12:42:04.016Z,74.90
2018-05-02T12:44:31.622Z,74.10
2018-05-02T12:46:59.377Z,73.70
2018-05-02T12:49:26.946Z,73.90
2018-05-02T12:51:54.539Z,73.60
2018-05-02T12:54:22.155Z,74.70
2018-05-02T12:56:49.804Z,72.50
2018-05-02T12:59:17.355Z,72.50
2018-05-02T13:01:44.947Z,73.50
2018-05-02T13:04:12.499Z,72.80
2018-05-02T13:09:34.101Z,72.60
2018-05-02T13:12:01.711Z,72.60
2018-05-02T13:14:29.277Z,73.10
2018-05-02T13:16:56.842Z,72.40
2018-05-02T13:19:24.422Z,72.60
2018-05-02T13:21:51.995Z,73.40
2018-05-02T13:24:19.566Z,72.50
2018-05-02T13:26:47.236Z,72.80
2018-05-02T13:29:14.852Z,74.10
2018-05-02T13:31:42.447Z,74.10
2018-05-02T13:34:10.042Z,74.20
2018-05-02T13:39:30.945Z,73.30
2018-05-02T13:41:58.502Z,72.80
2018-05-02T13:44:26.054Z,72.00
2018-05-02T13:47:03.411Z,71.80
2018-05-02T13:49:30.964Z,72.80
2018-05-02T13:51:58.537Z,72.60
2018-05-02T13:54:26.139Z,72.70
2018-05-02T13:56:53.691Z,71.10
2018-05-02T13:59:21.296Z,70.90
2018-05-02T14:01:48.880Z,71.40
2018-05-02T14:04:16.431Z,70.90
2018-05-02T14:06:58.379Z,71.20
2018-05-02T14:09:25.979Z,70.90
2018-05-02T14:11:53.559Z,71.20
2018-05-02T14:14:21.111Z,71.80
2018-05-02T14:16:48.681Z,72.10
2018-05-02T14:19:16.263Z,70.80
2018-05-02T14:21:43.860Z,71.30
2018-05-02T14:24:12.206Z,71.90
2018-05-02T14:26:59.242Z,71.90
2018-05-02T14:29:26.834Z,71.50
2018-05-02T14:31:54.418Z,71.80
2018-05-02T14:34:21.988Z,72.10
2018-05-02T14:36:49.603Z,72.50
2018-05-02T14:39:17.930Z,72.80
2018-05-02T14:41:45.483Z,72.70
2018-05-02T14:44:13.119Z,73.30
2018-05-02T14:46:40.671Z,74.00
2018-05-02T14:49:08.254Z,73.60
2018-05-02T14:51:35.840Z,73.60
2018-05-02T14:54:03.419Z,73.50
2018-05-02T14:56:31.841Z,74.10
2018-05-02T14:58:59.382Z,74.10
2018-05-02T15:01:26.994Z,73.70
2018-05-02T15:03:54.583Z,73.70
2018-05-02T15:06:22.923Z,74.10
2018-05-02T15:08:50.483Z,74.10
2018-05-02T15:11:18.063Z,73.10
2018-05-02T15:13:45.646Z,74.40
2018-05-02T15:16:13.232Z,73.50
2018-05-02T15:18:40.794Z,74.00
2018-05-02T15:21:09.134Z,75.30
2018-05-02T15:23:36.720Z,74.50
2018-05-02T15:26:04.378Z,72.90
2018-05-02T15:28:31.933Z,73.40
2018-05-02T15:30:59.505Z,74.10
2018-05-02T15:33:27.086Z,74.70
2018-05-02T15:35:54.704Z,74.70
2018-05-02T15:38:36.686Z,74.60
2018-05-02T15:41:04.304Z,76.70
2018-05-02T15:43:31.882Z,77.00
2018-05-02T15:45:59.454Z,77.70
2018-05-02T15:48:27.817Z,78.50
2018-05-02T15:50:55.399Z,78.40
2018-05-02T15:53:22.981Z,79.70
2018-05-02T15:55:50.558Z,79.40
2018-05-02T15:58:18.245Z,82.70
2018-05-02T16:00:45.760Z,84.40
2018-05-02T16:03:13.318Z,85.70
2018-05-02T16:05:40.959Z,87.30
2018-05-02T16:08:09.316Z,87.90
2018-05-02T16:10:36.907Z,87.80
2018-05-02T16:13:04.513Z,88.50
2018-05-02T16:15:32.053Z,89.40
2018-05-02T16:17:59.640Z,90.30
2018-05-02T16:20:27.239Z,90.60
2018-05-02T16:22:54.820Z,91.10
2018-05-02T16:25:22.404Z,91.20
2018-05-02T16:27:50.056Z,91.30
2018-05-02T16:30:17.591Z,91.20
2018-05-02T16:32:45.191Z,91.30
2018-05-02T16:35:12.855Z,91.10
2018-05-02T16:37:40.414Z,91.20
2018-05-02T16:40:07.973Z,91.10
2018-05-02T16:42:35.562Z,91.90
2018-05-02T16:45:03.944Z,92.00
2018-05-02T16:47:31.507Z,91.90
2018-05-02T16:49:59.103Z,91.40
2018-05-02T16:52:26.693Z,91.40
2018-05-02T16:54:54.254Z,91.80
2018-05-02T16:57:21.851Z,91.60
2018-05-02T16:59:49.416Z,91.90
2018-05-02T17:02:17.030Z,91.90
2018-05-02T17:04:44.711Z,92.50
2018-05-02T17:07:17.457Z,92.80
2018-05-02T17:09:45.039Z,92.50
2018-05-02T17:12:12.676Z,91.80
2018-05-02T17:14:40.258Z,91.90
2018-05-02T17:17:07.860Z,92.40
2018-05-02T17:19:35.433Z,92.50
2018-05-02T17:22:03.041Z,92.40
2018-05-02T17:24:30.632Z,92.50
2018-05-02T17:26:58.351Z,92.60
2018-05-02T17:29:25.914Z,93.00
2018-05-02T17:31:53.498Z,92.70
2018-05-02T17:34:21.815Z,92.80
2018-05-02T17:36:54.612Z,92.80
2018-05-02T17:39:22.171Z,92.90
2018-05-02T17:41:49.763Z,93.20
2018-05-02T17:44:17.359Z,93.30
2018-05-02T17:46:44.935Z,93.30
2018-05-02T17:49:12.510Z,93.30
2018-05-02T17:51:40.118Z,93.60
2018-05-02T17:54:08.459Z,93.50
2018-05-02T17:56:36.019Z,93.50
2018-05-02T17:59:03.658Z,93.70
2018-05-02T18:01:32.050Z,93.60
2018-05-02T18:03:59.662Z,93.60
2018-05-02T18:06:27.280Z,93.60
2018-05-02T18:08:54.878Z,93.50
2018-05-02T18:11:22.455Z,93.60
2018-05-02T18:14:04.911Z,93.70
2018-05-02T18:16:32.714Z,94.00
2018-05-02T18:19:00.298Z,94.10
2018-05-02T18:21:27.870Z,94.10
2018-05-02T18:23:55.413Z,93.50
2018-05-02T18:26:23.055Z,93.60
2018-05-02T18:28:50.671Z,93.90
2018-05-02T18:31:18.218Z,93.80
2018-05-02T18:33:45.777Z,94.00
2018-05-02T18:36:13.401Z,94.50
2018-05-02T18:38:40.990Z,94.50
2018-05-02T18:41:08.531Z,94.10
2018-05-02T18:43:36.082Z,93.80
2018-05-02T18:46:03.663Z,94.30
2018-05-02T18:48:36.306Z,94.50
2018-05-02T18:51:03.886Z,94.80
2018-05-02T18:53:31.458Z,94.60
2018-05-02T18:55:59.043Z,94.60
2018-05-02T18:58:26.687Z,94.60
2018-05-02T19:00:56.492Z,94.60
2018-05-02T19:03:24.121Z,94.30
2018-05-02T19:05:51.732Z,94.20
2018-05-02T19:08:19.303Z,94.40
2018-05-02T19:10:46.943Z,94.40
2018-05-02T19:13:14.594Z,94.60
2018-05-02T19:15:42.183Z,94.60
2018-05-02T19:18:15.454Z,94.70
2018-05-02T19:20:42.997Z,94.80
2018-05-02T19:23:10.575Z,94.70
2018-05-02T19:25:43.745Z,94.80
2018-05-02T19:28:16.745Z,94.80
2018-05-02T19:30:44.371Z,95.10
2018-05-02T19:33:17.620Z,95.00
2018-05-02T19:35:45.244Z,94.80
2018-05-02T19:38:12.820Z,95.30
2018-05-02T19:40:46.063Z,94.80
2018-05-02T19:46:12.702Z,95.00
2018-05-02T19:48:41.050Z,95.50
2018-05-02T19:51:14.243Z,95.50
2018-05-02T19:53:41.734Z,95.50
2018-05-02T19:56:09.282Z,95.10
2018-05-02T19:58:37.565Z,95.60
2018-05-02T20:01:11.404Z,95.30
2018-05-02T20:03:38.952Z,95.30
2018-05-02T20:06:06.544Z,95.30
2018-05-02T20:08:39.695Z,95.40
2018-05-02T20:11:12.840Z,95.40
2018-05-02T20:13:45.940Z,95.40
2018-05-02T20:16:13.479Z,95.20
2018-05-02T20:18:41.026Z,95.40
2018-05-02T20:21:08.565Z,95.40
2018-05-02T20:23:36.132Z,95.70
2018-05-02T20:26:03.669Z,96.10
2018-05-02T20:28:31.190Z,95.90
2018-05-02T20:30:58.766Z,95.70
2018-05-02T20:33:26.262Z,95.70
2018-05-02T20:35:53.782Z,96.00
2018-05-02T20:38:22.111Z,96.10
2018-05-02T20:40:49.658Z,96.00
2018-05-02T20:43:17.201Z,95.60
2018-05-02T20:45:44.774Z,95.60
2018-05-02T20:48:12.311Z,95.80
2018-05-02T20:50:39.835Z,95.70
2018-05-02T20:53:07.427Z,95.70
2018-05-02T20:55:34.975Z,95.80
2018-05-02T20:58:03.282Z,96.00
2018-05-02T21:00:30.863Z,96.00
2018-05-02T21:02:58.378Z,95.90
2018-05-02T21:05:25.898Z,95.70
2018-05-02T21:07:53.435Z,95.70
2018-05-02T21:10:21.008Z,95.70
2018-05-02T21:12:48.551Z,96.10
2018-05-02T21:15:16.078Z,96.10
2018-05-02T21:17:43.614Z,96.40
2018-05-02T21:20:11.166Z,96.30
2018-05-02T21:22:38.691Z,96.40
2018-05-02T21:25:06.239Z,96.20
2018-05-02T21:27:33.807Z,96.10
2018-05-02T21:30:01.354Z,96.10
2018-05-02T21:32:28.884Z,95.80
2018-05-02T21:34:56.504Z,95.50
2018-05-02T21:37:24.043Z,95.50
2018-05-02T21:39:51.567Z,95.40
2018-05-02T21:42:19.178Z,95.50
2018-05-02T21:44:46.681Z,95.80
2018-05-02T21:47:14.222Z,95.80
2018-05-02T21:49:42.555Z,96.00
2018-05-02T21:52:10.077Z,95.90
2018-05-02T21:54:37.618Z,96.10
2018-05-02T21:57:05.947Z,95.90
2018-05-02T21:59:33.494Z,95.90
2018-05-02T22:02:01.026Z,96.00
2018-05-02T22:04:28.602Z,96.20
2018-05-02T22:06:56.195Z,96.30
2018-05-02T22:09:23.721Z,96.20
2018-05-02T22:11:51.298Z,96.30
2018-05-02T22:14:18.843Z,96.30
2018-05-02T22:16:46.422Z,96.40
2018-05-02T22:19:13.998Z,96.30
2018-05-02T22:21:41.542Z,96.30
2018-05-02T22:24:09.063Z,96.50
2018-05-02T22:26:36.610Z,96.60
2018-05-02T22:29:04.143Z,96.90
2018-05-02T22:31:31.710Z,96.50
2018-05-02T22:34:00.035Z,96.40
2018-05-02T22:36:27.566Z,96.40
2018-05-02T22:38:55.106Z,96.80
2018-05-02T22:41:23.390Z,96.90
2018-05-02T22:43:50.943Z,96.90
2018-05-02T22:46:18.494Z,96.80
2018-05-02T22:48:46.867Z,96.80
2018-05-02T22:51:14.351Z,96.80
2018-05-02T22:53:41.954Z,96.50
2018-05-02T22:56:09.489Z,96.50
2018-05-02T22:58:37.019Z,96.80
2018-05-02T23:01:05.382Z,96.80
2018-05-02T23:03:33.680Z,96.70
2018-05-02T23:06:01.242Z,96.70
2018-05-02T23:08:28.780Z,96.70
2018-05-02T23:10:56.327Z,96.80
2018-05-02T23:13:23.865Z,97.10
2018-05-02T23:15:51.413Z,97.50
2018-05-02T23:18:18.961Z,97.70
2018-05-02T23:20:46.473Z,97.50
2018-05-02T23:23:14.803Z,97.70
2018-05-02T23:25:42.334Z,97.70
2018-05-02T23:28:09.875Z,97.30
2018-05-02T23:30:38.181Z,97.30
2018-05-02T23:33:05.758Z,97.30
2018-05-02T23:35:33.278Z,97.30
2018-05-02T23:38:00.800Z,97.30
2018-05-02T23:40:28.354Z,97.30
2018-05-02T23:42:55.928Z,97.30
2018-05-02T23:45:23.502Z,97.30
2018-05-02T23:47:51.074Z,97.20
2018-05-02T23:50:18.623Z,97.10
2018-05-02T23:52:46.159Z,97.10
2018-05-02T23:55:13.678Z,97.40
2018-05-02T23:57:41.244Z,97.40
